createdAt,value
2022-08-25T00:01:00.638Z,11.00
2022-08-25T00:05:02.248Z,14.63
2022-08-25T00:09:07.069Z,11.70
2022-08-25T00:13:09.238Z,8.93
2022-08-25T00:17:10.700Z,10.38
2022-08-25T00:21:14.709Z,8.52
2022-08-25T00:25:16.993Z,10.65
2022-08-25T00:29:19.137Z,12.50
2022-08-25T00:33:21.095Z,11.77
2022-08-25T00:37:22.580Z,13.23
2022-08-25T00:41:25.442Z,14.68
2022-08-25T00:45:27.493Z,9.85
2022-08-25T00:49:40.093Z,9.02
2022-08-25T00:53:43.348Z,13.55
2022-08-25T00:58:15.882Z,14.30
2022-08-25T01:02:18.365Z,10.70
2022-08-25T01:06:20.087Z,12.88
2022-08-25T01:10:22.656Z,8.15
2022-08-25T01:14:25.185Z,12.15
2022-08-25T01:18:29.070Z,11.15
2022-08-25T01:22:32.085Z,14.90
2022-08-25T01:26:35.474Z,11.50
2022-08-25T01:30:37.714Z,9.75
2022-08-25T01:34:42.973Z,9.85
2022-08-25T01:38:44.599Z,14.10
2022-08-25T01:43:31.897Z,13.77
2022-08-25T01:47:33.592Z,10.15
2022-08-25T01:51:42.493Z,10.77
2022-08-25T01:55:53.137Z,13.25
2022-08-25T01:59:55.752Z,12.73
2022-08-25T02:03:57.338Z,11.95
2022-08-25T02:07:59.038Z,13.10
2022-08-25T02:12:00.673Z,12.02
2022-08-25T02:16:02.371Z,15.80
2022-08-25T02:20:09.535Z,19.13
2022-08-25T02:24:12.293Z,13.63
2022-08-25T02:28:14.017Z,14.05
2022-08-25T02:32:15.483Z,11.18
2022-08-25T02:36:17.224Z,15.88
2022-08-25T02:40:21.464Z,14.50
2022-08-25T02:44:23.012Z,18.35
2022-08-25T02:48:24.517Z,13.65
2022-08-25T02:52:26.044Z,14.30
2022-08-25T02:56:28.315Z,11.90
2022-08-25T03:00:29.846Z,12.27
2022-08-25T03:04:31.977Z,12.02
2022-08-25T03:08:33.727Z,16.05
2022-08-25T03:12:35.331Z,10.70
2022-08-25T03:16:37.477Z,12.45
2022-08-25T03:20:39.498Z,12.45
2022-08-25T03:24:40.949Z,10.95
2022-08-25T03:28:42.484Z,13.00
2022-08-25T03:32:44.033Z,18.13
2022-08-25T03:36:48.163Z,15.25
2022-08-25T03:40:49.966Z,15.05
2022-08-25T03:44:51.552Z,13.63
2022-08-25T03:48:53.950Z,14.77
2022-08-25T03:52:56.749Z,16.52
2022-08-25T03:56:58.302Z,19.42
2022-08-25T04:01:00.546Z,22.25
2022-08-25T04:05:02.088Z,16.20
2022-08-25T04:09:04.558Z,18.92
2022-08-25T04:13:06.238Z,16.90
2022-08-25T04:17:08.450Z,16.40
2022-08-25T04:21:11.173Z,14.77
2022-08-25T04:25:13.515Z,19.75
2022-08-25T04:29:17.716Z,17.40
2022-08-25T04:33:19.241Z,17.05
2022-08-25T04:37:20.733Z,16.52
2022-08-25T04:41:24.316Z,15.35
2022-08-25T04:45:25.820Z,14.18
2022-08-25T04:49:28.088Z,19.95
2022-08-25T04:53:29.556Z,21.23
2022-08-25T04:57:31.048Z,25.05
2022-08-25T05:01:33.251Z,21.83
2022-08-25T05:05:37.318Z,19.08
2022-08-25T05:09:38.845Z,16.88
2022-08-25T05:13:41.363Z,13.13
2022-08-25T05:17:43.666Z,15.30
2022-08-25T05:21:45.153Z,13.95
2022-08-25T05:25:47.495Z,13.63
2022-08-25T05:29:49.027Z,13.77
2022-08-25T05:33:51.616Z,14.75
2022-08-25T05:37:53.065Z,20.33
2022-08-25T05:41:54.525Z,11.25
2022-08-25T05:45:58.115Z,14.00
2022-08-25T05:49:59.718Z,16.63
2022-08-25T05:54:01.182Z,19.63
2022-08-25T05:58:02.704Z,21.38
2022-08-25T06:02:22.865Z,20.10
2022-08-25T06:06:24.442Z,19.83
2022-08-25T06:10:27.053Z,24.88
2022-08-25T06:14:28.538Z,22.33
2022-08-25T06:18:30.009Z,21.33
2022-08-25T06:22:31.445Z,26.08
2022-08-25T06:26:34.328Z,22.90
2022-08-25T06:30:36.229Z,24.35
2022-08-25T06:34:37.845Z,22.33
2022-08-25T06:38:39.335Z,20.42
2022-08-25T06:42:40.994Z,27.85
2022-08-25T06:46:42.455Z,20.95
2022-08-25T06:50:44.647Z,21.45
2022-08-25T06:54:47.048Z,20.25
2022-08-25T06:58:50.662Z,21.75
2022-08-25T07:02:52.114Z,21.73
2022-08-25T07:06:55.509Z,22.40
2022-08-25T07:10:57.717Z,20.85
2022-08-25T07:15:20.663Z,21.88
2022-08-25T07:19:22.194Z,20.98
2022-08-25T07:23:24.392Z,17.73
2022-08-25T07:27:26.274Z,23.20
2022-08-25T07:31:29.486Z,20.10
2022-08-25T07:35:36.527Z,20.73
2022-08-25T07:39:39.434Z,22.10
2022-08-25T07:43:41.751Z,20.58
2022-08-25T07:47:43.272Z,21.95
2022-08-25T07:52:05.100Z,20.27
2022-08-25T07:56:15.208Z,17.70
2022-08-25T08:00:17.975Z,20.92
2022-08-25T08:04:22.294Z,20.92
2022-08-25T08:08:23.741Z,16.60
2022-08-25T08:12:26.865Z,18.60
2022-08-25T08:16:30.145Z,21.25
2022-08-25T08:20:42.839Z,17.98
2022-08-25T08:24:54.820Z,19.25
2022-08-25T08:28:57.905Z,15.85
2022-08-25T08:33:09.600Z,18.33
2022-08-25T08:37:11.747Z,18.45
2022-08-25T08:41:48.953Z,18.02
2022-08-25T08:45:57.366Z,19.25
2022-08-25T08:50:55.553Z,14.25
2022-08-25T08:55:02.716Z,14.07
2022-08-25T08:59:16.049Z,14.43
2022-08-25T09:03:41.547Z,16.38
2022-08-25T09:07:49.500Z,16.98
2022-08-25T09:12:20.323Z,14.57
2022-08-25T09:16:50.036Z,18.90
2022-08-25T09:25:04.357Z,14.10
2022-08-25T09:29:16.486Z,13.02
2022-08-25T09:37:23.462Z,17.67
2022-08-25T09:41:51.312Z,12.57
2022-08-25T09:46:01.786Z,11.32
2022-08-25T09:50:05.354Z,13.95
2022-08-25T09:54:13.174Z,12.68
2022-08-25T09:58:22.307Z,12.93
2022-08-25T10:02:27.624Z,13.73
2022-08-25T10:06:55.900Z,13.25
2022-08-25T10:10:59.338Z,11.33
2022-08-25T10:15:15.413Z,11.23
2022-08-25T10:19:31.607Z,18.67
2022-08-25T10:23:37.231Z,7.93
2022-08-25T10:27:52.732Z,10.93
2022-08-25T10:32:01.220Z,12.45
2022-08-25T10:36:22.693Z,11.45
2022-08-25T10:40:46.138Z,15.25
2022-08-25T10:45:11.414Z,9.45
2022-08-25T10:49:24.626Z,10.57
2022-08-25T10:54:05.905Z,10.27
2022-08-25T10:58:35.885Z,8.52
2022-08-25T11:03:05.224Z,12.65
2022-08-25T11:07:14.090Z,12.02
2022-08-25T11:11:32.982Z,8.52
2022-08-25T11:16:06.263Z,11.15
2022-08-25T11:20:16.363Z,14.50
2022-08-25T11:24:59.624Z,9.52
2022-08-25T11:29:16.996Z,15.07
2022-08-25T11:33:19.914Z,9.70
2022-08-25T11:37:26.867Z,13.68
2022-08-25T11:42:05.061Z,12.43
2022-08-25T11:46:22.153Z,11.95
2022-08-25T11:50:54.569Z,12.60
2022-08-25T11:54:56.245Z,13.07
2022-08-25T11:59:00.540Z,12.20
2022-08-25T12:03:36.982Z,8.95
2022-08-25T12:08:10.401Z,10.52
2022-08-25T12:12:39.025Z,10.55
2022-08-25T12:17:04.786Z,12.27
2022-08-25T12:21:06.208Z,8.73
2022-08-25T12:25:29.864Z,11.55
2022-08-25T12:29:53.035Z,12.57
2022-08-25T12:34:04.497Z,13.05
2022-08-25T12:38:14.407Z,13.20
2022-08-25T12:42:32.552Z,11.35
2022-08-25T12:46:39.362Z,12.63
2022-08-25T12:50:44.563Z,10.25
2022-08-25T12:54:55.355Z,16.10
2022-08-25T12:59:03.305Z,15.40
2022-08-25T13:03:14.752Z,13.25
2022-08-25T13:07:55.055Z,11.13
2022-08-25T13:12:14.193Z,12.43
2022-08-25T13:16:28.399Z,10.73
2022-08-25T13:20:30.708Z,12.20
2022-08-25T13:24:40.427Z,18.65
2022-08-25T13:28:50.352Z,10.88
2022-08-25T13:32:52.117Z,11.20
2022-08-25T13:37:30.377Z,10.13
2022-08-25T13:41:34.048Z,13.10
2022-08-25T13:45:41.889Z,10.63
2022-08-25T13:49:47.568Z,11.30
2022-08-25T13:53:53.548Z,9.75
2022-08-25T13:57:58.737Z,11.88
2022-08-25T14:02:00.610Z,12.23
2022-08-25T14:06:14.461Z,7.97
2022-08-25T14:10:44.455Z,7.22
2022-08-25T14:14:58.138Z,10.18
2022-08-25T14:19:01.789Z,15.63
2022-08-25T14:23:16.168Z,10.23
2022-08-25T14:27:21.146Z,10.50
2022-08-25T14:31:30.392Z,12.82
2022-08-25T14:35:33.932Z,9.93
2022-08-25T14:39:35.391Z,9.20
2022-08-25T14:43:37.190Z,9.05
2022-08-25T14:47:40.467Z,14.05
2022-08-25T14:51:43.418Z,10.30
2022-08-25T14:55:44.941Z,9.27
2022-08-25T14:59:46.612Z,13.10
2022-08-25T15:03:52.330Z,8.27
2022-08-25T15:08:12.928Z,12.85
2022-08-25T15:12:17.799Z,8.95
2022-08-25T15:16:35.230Z,15.88
2022-08-25T15:20:36.948Z,11.25
2022-08-25T15:24:39.092Z,9.88
2022-08-25T15:28:48.382Z,15.57
2022-08-25T15:32:50.626Z,10.05
2022-08-25T15:36:52.426Z,8.70
2022-08-25T15:40:53.872Z,14.82
2022-08-25T15:44:56.051Z,11.30
2022-08-25T15:48:59.485Z,12.38
2022-08-25T15:53:00.953Z,14.25
2022-08-25T15:57:02.499Z,15.00
2022-08-25T16:01:04.806Z,12.35
2022-08-25T16:05:11.559Z,16.55
2022-08-25T16:09:15.058Z,10.48
2022-08-25T16:13:16.650Z,14.50
2022-08-25T16:17:20.161Z,14.00
2022-08-25T16:21:29.131Z,10.93
2022-08-25T16:25:31.512Z,13.73
2022-08-25T16:29:36.849Z,15.48
2022-08-25T16:33:39.661Z,12.35
2022-08-25T16:37:41.300Z,17.77
2022-08-25T16:41:44.333Z,17.23
2022-08-25T16:45:46.241Z,15.82
2022-08-25T16:49:48.256Z,16.42
2022-08-25T16:54:08.253Z,13.65
2022-08-25T16:58:13.542Z,18.63
2022-08-25T17:02:15.190Z,11.27
2022-08-25T17:06:16.742Z,16.15
2022-08-25T17:10:18.372Z,16.40
2022-08-25T17:14:19.974Z,21.45
2022-08-25T17:18:21.562Z,19.48
2022-08-25T17:22:25.440Z,17.67
2022-08-25T17:26:30.252Z,12.65
2022-08-25T17:30:33.551Z,14.07
2022-08-25T17:34:36.565Z,16.02
2022-08-25T17:38:40.452Z,11.93
2022-08-25T17:42:42.733Z,15.20
2022-08-25T17:46:47.118Z,18.20
2022-08-25T17:50:49.408Z,17.33
2022-08-25T17:54:52.586Z,21.75
2022-08-25T17:58:55.663Z,12.27
2022-08-25T18:02:57.820Z,18.55
2022-08-25T18:06:59.302Z,13.55
2022-08-25T18:11:01.568Z,18.92
2022-08-25T18:15:05.684Z,12.02
2022-08-25T18:19:09.655Z,27.00
2022-08-25T18:23:12.962Z,16.55
2022-08-25T18:27:14.499Z,18.08
2022-08-25T18:31:16.444Z,13.15
2022-08-25T18:35:21.816Z,16.17
2022-08-25T18:39:46.858Z,17.92
2022-08-25T18:43:48.427Z,15.00
2022-08-25T18:47:56.408Z,19.88
2022-08-25T18:52:01.370Z,15.45
2022-08-25T18:56:03.255Z,14.77
2022-08-25T19:00:06.326Z,16.88
2022-08-25T19:04:08.212Z,18.65
2022-08-25T19:08:12.340Z,23.63
2022-08-25T19:12:22.288Z,19.52
2022-08-25T19:16:38.192Z,17.25
2022-08-25T19:20:42.016Z,17.40
2022-08-25T19:24:44.487Z,16.58
2022-08-25T19:28:48.852Z,14.50
2022-08-25T19:32:52.412Z,20.35
2022-08-25T19:36:54.703Z,15.73
2022-08-25T19:40:58.399Z,22.38
2022-08-25T19:45:10.172Z,17.55
2022-08-25T19:49:18.728Z,19.10
2022-08-25T19:57:28.194Z,16.63
2022-08-25T20:01:47.149Z,18.05
2022-08-25T20:05:51.203Z,14.95
2022-08-25T20:09:53.989Z,16.30
2022-08-25T20:13:59.311Z,12.10
2022-08-25T20:18:04.769Z,19.75
2022-08-25T20:22:06.924Z,16.85
2022-08-25T20:26:12.682Z,16.85
2022-08-25T20:30:20.611Z,21.38
2022-08-25T20:34:22.152Z,17.08
2022-08-25T20:38:24.040Z,16.70
2022-08-25T20:42:25.620Z,15.20
2022-08-25T20:46:28.181Z,14.60
2022-08-25T20:50:30.011Z,15.40
2022-08-25T20:54:31.532Z,14.43
2022-08-25T20:58:36.866Z,13.73
2022-08-25T21:02:38.486Z,15.15
2022-08-25T21:06:40.884Z,16.20
2022-08-25T21:10:42.365Z,13.10
2022-08-25T21:14:44.313Z,16.35
2022-08-25T21:18:48.159Z,15.85
2022-08-25T21:22:51.166Z,12.32
2022-08-25T21:26:57.070Z,17.80
2022-08-25T21:30:58.579Z,16.27
2022-08-25T21:35:00.166Z,14.00
2022-08-25T21:39:01.763Z,23.90
2022-08-25T21:43:03.899Z,16.90
2022-08-25T21:47:05.649Z,14.65
2022-08-25T21:51:15.839Z,15.10
2022-08-25T21:55:17.285Z,14.50
2022-08-25T21:59:22.211Z,15.52
2022-08-25T22:03:23.759Z,16.92
2022-08-25T22:07:25.631Z,19.10
2022-08-25T22:11:28.173Z,15.15
2022-08-25T22:15:31.850Z,16.40
2022-08-25T22:19:33.306Z,11.43
2022-08-25T22:23:44.233Z,14.38
2022-08-25T22:27:46.233Z,17.55
2022-08-25T22:31:51.088Z,16.92
2022-08-25T22:36:00.002Z,19.02
2022-08-25T22:40:03.953Z,14.23
2022-08-25T22:44:05.951Z,14.13
2022-08-25T22:48:07.602Z,15.18
2022-08-25T22:52:09.344Z,18.45
2022-08-25T22:56:17.412Z,14.15
2022-08-25T23:00:19.458Z,18.25
2022-08-25T23:04:21.322Z,18.25
2022-08-25T23:08:38.962Z,17.25
2022-08-25T23:12:42.676Z,16.08
2022-08-25T23:16:45.921Z,20.17
2022-08-25T23:21:06.146Z,18.67
2022-08-25T23:25:07.950Z,20.70
2022-08-25T23:29:18.275Z,15.43
2022-08-25T23:33:21.463Z,14.63
2022-08-25T23:37:22.974Z,18.77
2022-08-25T23:41:25.686Z,13.52
2022-08-25T23:45:27.212Z,11.52
2022-08-25T23:49:28.792Z,15.10
2022-08-25T23:53:31.653Z,13.05
2022-08-25T23:57:33.412Z,14.30
